Time;durP1;ratioP1;P1;durP2;ratioP2;P2;SDS_P1;SDS_P2;PMS_P1;PMS_P2;Temp;Humidity;BMP_temperature;BMP_pressure;BME280_temperature;BME280_humidity;BME280_pressure;Samples;Min_cycle;Max_cycle;Signal;HPM_P1;HPM_P2
2023/06/18 00:02:11;;;;;;;4.88;4.03;;;21.00;49.60;;;;;;5056503;28;20185;-68
2023/06/18 00:04:37;;;;;;;5.28;3.63;;;21.00;49.80;;;;;;5038812;28;20267;-68
2023/06/18 00:07:06;;;;;;;5.82;4.00;;;20.90;49.80;;;;;;5037366;28;20197;-68
2023/06/18 00:09:36;;;;;;;4.43;3.80;;;20.90;49.90;;;;;;5036744;28;20190;-69
2023/06/18 00:12:02;;;;;;;4.60;3.58;;;20.90;50.30;;;;;;5039542;28;20225;-68
2023/06/18 00:14:28;;;;;;;4.32;3.58;;;20.80;50.10;;;;;;5039898;28;20278;-67
2023/06/18 00:16:53;;;;;;;5.95;3.42;;;20.80;50.30;;;;;;5039907;28;20180;-67
2023/06/18 00:19:19;;;;;;;4.97;3.50;;;20.70;50.40;;;;;;5054012;28;20181;-68
2023/06/18 00:21:47;;;;;;;6.00;3.45;;;20.70;50.60;;;;;;5052818;28;20229;-68
2023/06/18 00:24:13;;;;;;;4.13;3.55;;;20.60;50.70;;;;;;5025177;28;20189;-67
2023/06/18 00:26:39;;;;;;;4.32;3.20;;;20.60;50.80;;;;;;5037138;28;20174;-68
2023/06/18 00:29:07;;;;;;;4.55;3.40;;;20.50;50.90;;;;;;5053503;28;20201;-68
2023/06/18 00:31:32;;;;;;;4.85;3.28;;;20.50;51.00;;;;;;5038682;28;20193;-67
2023/06/18 00:34:05;;;;;;;4.18;3.30;;;20.40;51.10;;;;;;5039411;28;20199;-68
2023/06/18 00:36:31;;;;;;;3.78;3.10;;;20.40;51.30;;;;;;5038787;28;20205;-68
2023/06/18 00:38:57;;;;;;;5.00;3.20;;;20.40;51.40;;;;;;5049226;28;20325;-67
2023/06/18 00:41:27;;;;;;;3.92;3.40;;;20.40;51.50;;;;;;5034919;28;20204;-68
2023/06/18 00:43:53;;;;;;;5.45;3.13;;;20.40;51.80;;;;;;5055683;28;20177;-67
2023/06/18 00:46:20;;;;;;;3.40;2.95;;;20.30;51.60;;;;;;5055442;28;20460;-67
2023/06/18 00:48:48;;;;;;;3.97;3.55;;;20.40;51.90;;;;;;5039298;28;20425;-67
2023/06/18 00:51:17;;;;;;;4.30;3.40;;;20.30;52.10;;;;;;5054262;28;20197;-67
2023/06/18 00:53:43;;;;;;;3.35;3.03;;;20.30;52.00;;;;;;5056645;28;20268;-67
2023/06/18 00:56:13;;;;;;;3.45;3.15;;;20.30;52.10;;;;;;5055782;28;20201;-67
2023/06/18 00:58:39;;;;;;;6.32;3.33;;;20.30;52.10;;;;;;5039530;28;20188;-67
2023/06/18 01:01:09;;;;;;;4.65;3.08;;;20.30;52.20;;;;;;5057190;28;20178;-68
2023/06/18 01:03:36;;;;;;;4.72;3.30;;;20.30;52.50;;;;;;5028578;28;20303;-68
2023/06/18 01:06:03;;;;;;;3.83;3.05;;;20.30;52.40;;;;;;5052849;28;20173;-67
2023/06/18 01:08:32;;;;;;;3.40;2.90;;;20.30;52.50;;;;;;5053546;28;20191;-67
2023/06/18 01:11:04;;;;;;;3.40;3.05;;;20.30;52.60;;;;;;5034418;28;20278;-68
2023/06/18 01:13:40;;;;;;;3.60;3.30;;;20.20;52.80;;;;;;5038624;28;20196;-67
2023/06/18 01:16:10;;;;;;;4.20;3.38;;;20.20;53.00;;;;;;5055986;28;20252;-67
2023/06/18 01:18:46;;;;;;;3.33;2.90;;;20.30;53.00;;;;;;5055440;28;20170;-67
2023/06/18 01:21:19;;;;;;;3.22;2.70;;;20.30;53.70;;;;;;5055108;28;20177;-67
2023/06/18 01:24:23;;;;;;;3.30;3.00;;;20.20;53.30;;;;;;5033283;28;20198;-68
2023/06/18 01:26:51;;;;;;;3.95;3.20;;;20.30;54.20;;;;;;5019432;28;20177;-68
2023/06/18 01:29:17;;;;;;;5.05;3.13;;;20.30;53.10;;;;;;5055444;28;20165;-67
2023/06/18 01:31:45;;;;;;;4.13;3.35;;;20.30;53.30;;;;;;5040448;28;20201;-68
2023/06/18 01:34:12;;;;;;;3.70;3.20;;;20.30;53.40;;;;;;5051512;28;20174;-67
2023/06/18 01:37:10;;;;;;;3.28;2.97;;;20.30;54.00;;;;;;5026773;28;20169;-67
2023/06/18 01:39:47;;;;;;;3.28;2.88;;;20.20;54.20;;;;;;5043711;28;20177;-68
2023/06/18 01:42:22;;;;;;;4.13;3.00;;;20.30;53.60;;;;;;5027540;28;20185;-68
2023/06/18 01:45:02;;;;;;;3.80;3.38;;;20.20;53.70;;;;;;5037704;28;20196;-68
2023/06/18 01:47:28;;;;;;;3.20;2.90;;;20.20;54.10;;;;;;5035626;28;20181;-67
2023/06/18 01:49:55;;;;;;;3.80;2.90;;;20.10;53.50;;;;;;5048505;28;20283;-67
2023/06/18 01:52:23;;;;;;;4.93;3.00;;;20.10;53.70;;;;;;5054400;28;20370;-66
2023/06/18 01:54:50;;;;;;;4.95;3.10;;;20.10;53.80;;;;;;5035844;28;20185;-67
2023/06/18 01:57:21;;;;;;;3.63;3.08;;;20.10;54.40;;;;;;5054480;28;20181;-67
2023/06/18 01:59:50;;;;;;;4.45;3.05;;;20.00;54.20;;;;;;5038310;28;20173;-67
2023/06/18 02:02:16;;;;;;;4.00;3.00;;;20.00;54.10;;;;;;5054190;28;20196;-67
2023/06/18 02:04:47;;;;;;;5.35;3.10;;;20.00;54.10;;;;;;5052121;28;20190;-67
2023/06/18 02:07:17;;;;;;;4.45;3.08;;;19.90;54.30;;;;;;5038167;28;20177;-67
2023/06/18 02:09:45;;;;;;;3.30;2.95;;;19.90;54.70;;;;;;5053687;28;20225;-67
2023/06/18 02:12:11;;;;;;;3.22;2.85;;;19.90;54.60;;;;;;5038140;28;20217;-67
2023/06/18 02:14:38;;;;;;;3.47;3.00;;;19.90;54.80;;;;;;5036930;28;20215;-67
2023/06/18 02:17:06;;;;;;;4.53;3.28;;;19.80;54.70;;;;;;5034360;28;20174;-67
2023/06/18 02:19:34;;;;;;;3.60;3.05;;;19.80;55.20;;;;;;5046330;28;20177;-67
2023/06/18 02:22:00;;;;;;;3.22;2.83;;;19.70;55.20;;;;;;5052296;28;20181;-67
2023/06/18 02:24:25;;;;;;;3.20;2.90;;;19.70;54.90;;;;;;5053491;28;20212;-67
2023/06/18 02:26:53;;;;;;;3.28;2.90;;;19.60;54.90;;;;;;5038077;28;20196;-67
2023/06/18 02:29:21;;;;;;;3.42;2.92;;;19.60;55.00;;;;;;5033939;28;20220;-67
2023/06/18 02:31:46;;;;;;;3.95;2.90;;;19.60;55.20;;;;;;5053576;28;20200;-67
2023/06/18 02:34:12;;;;;;;3.50;2.75;;;19.60;55.30;;;;;;5054815;28;20178;-66
2023/06/18 02:36:38;;;;;;;2.90;2.70;;;19.60;55.40;;;;;;5037001;28;20227;-66
2023/06/18 02:39:04;;;;;;;3.33;2.83;;;19.50;55.40;;;;;;5053778;28;20184;-66
2023/06/18 02:41:32;;;;;;;3.70;3.00;;;19.50;55.60;;;;;;5037779;28;20184;-67
2023/06/18 02:43:58;;;;;;;3.20;2.90;;;19.40;55.70;;;;;;5033950;28;20216;-67
2023/06/18 02:46:23;;;;;;;2.97;2.67;;;19.40;55.90;;;;;;5025979;28;20260;-68
2023/06/18 02:48:51;;;;;;;3.50;2.78;;;19.40;55.90;;;;;;5048370;28;20208;-68
2023/06/18 02:51:16;;;;;;;3.20;2.72;;;19.40;56.00;;;;;;5037036;28;20188;-67
2023/06/18 02:53:42;;;;;;;3.08;2.75;;;19.40;56.00;;;;;;5037338;28;20236;-67
2023/06/18 02:56:08;;;;;;;3.00;2.65;;;19.30;56.10;;;;;;5037667;28;20177;-67
2023/06/18 02:58:35;;;;;;;6.68;2.90;;;19.30;56.10;;;;;;5037532;28;20165;-68
2023/06/18 03:01:02;;;;;;;4.35;3.17;;;19.30;56.20;;;;;;5037713;28;20161;-68
2023/06/18 03:03:28;;;;;;;3.67;3.00;;;19.20;56.20;;;;;;5022206;28;20194;-67
2023/06/18 03:05:54;;;;;;;3.40;3.10;;;19.20;56.20;;;;;;5018481;28;20194;-67
2023/06/18 03:08:20;;;;;;;3.22;2.80;;;19.20;56.40;;;;;;5023930;28;20232;-67
2023/06/18 03:10:46;;;;;;;3.88;2.95;;;19.20;56.60;;;;;;5040384;28;20181;-68
2023/06/18 03:13:14;;;;;;;4.57;3.08;;;19.20;56.70;;;;;;5037411;28;20256;-67
2023/06/18 03:15:40;;;;;;;3.63;2.97;;;19.20;56.90;;;;;;5053924;28;20201;-68
2023/06/18 03:18:06;;;;;;;3.22;2.90;;;19.20;57.20;;;;;;5037114;28;20173;-68
2023/06/18 03:20:35;;;;;;;3.67;3.17;;;19.20;57.20;;;;;;5053815;28;20177;-68
2023/06/18 03:23:03;;;;;;;3.45;2.92;;;19.20;57.30;;;;;;5036686;28;20185;-67
2023/06/18 03:25:28;;;;;;;4.47;2.97;;;19.10;57.20;;;;;;5037312;28;20181;-67
2023/06/18 03:27:56;;;;;;;3.25;2.95;;;19.10;57.30;;;;;;5036976;28;20300;-68
2023/06/18 03:30:22;;;;;;;3.28;2.97;;;19.10;57.30;;;;;;5053189;28;20185;-67
2023/06/18 03:32:50;;;;;;;3.53;2.90;;;19.10;57.30;;;;;;5033939;28;20201;-68
2023/06/18 03:35:18;;;;;;;4.25;3.25;;;19.10;57.50;;;;;;5050549;28;20193;-67
2023/06/18 03:37:44;;;;;;;3.28;2.97;;;19.10;57.60;;;;;;5052310;28;20235;-67
2023/06/18 03:40:10;;;;;;;3.42;2.83;;;19.10;57.50;;;;;;5052283;28;20229;-68
2023/06/18 03:42:35;;;;;;;3.90;2.97;;;19.00;57.50;;;;;;5036011;28;20173;-67
2023/06/18 03:45:01;;;;;;;3.38;3.08;;;19.00;57.70;;;;;;5053525;28;20188;-68
2023/06/18 03:47:26;;;;;;;4.25;3.30;;;19.10;57.90;;;;;;5033139;28;20287;-67
2023/06/18 03:49:55;;;;;;;3.97;3.00;;;19.10;57.90;;;;;;5023361;28;20208;-67
2023/06/18 03:52:20;;;;;;;3.63;3.00;;;19.10;58.30;;;;;;5052810;28;20205;-68
2023/06/18 03:54:48;;;;;;;5.45;3.03;;;19.00;58.00;;;;;;5052484;28;20181;-68
2023/06/18 03:57:14;;;;;;;3.13;2.78;;;19.00;58.10;;;;;;5036906;28;20435;-68
2023/06/18 03:59:42;;;;;;;4.93;3.15;;;19.00;58.30;;;;;;5052883;28;20288;-68
2023/06/18 04:02:10;;;;;;;3.78;3.10;;;19.00;58.70;;;;;;5031610;28;20236;-68
2023/06/18 04:04:37;;;;;;;6.55;3.30;;;19.00;58.70;;;;;;5053992;28;20212;-68
2023/06/18 04:07:03;;;;;;;3.10;2.80;;;19.00;58.70;;;;;;5038831;28;20178;-68
2023/06/18 04:09:29;;;;;;;3.58;3.03;;;19.10;58.90;;;;;;5056676;28;20282;-68
2023/06/18 04:11:57;;;;;;;4.10;3.03;;;19.00;59.00;;;;;;5056765;28;20201;-68
2023/06/18 04:14:22;;;;;;;3.65;3.28;;;19.00;59.10;;;;;;5040339;28;20181;-68
2023/06/18 04:16:48;;;;;;;4.47;3.10;;;19.10;59.20;;;;;;5040106;28;20280;-68
2023/06/18 04:19:14;;;;;;;4.35;2.95;;;19.10;59.30;;;;;;5040273;28;20178;-68
2023/06/18 04:21:42;;;;;;;3.38;3.00;;;19.10;59.80;;;;;;5040849;28;20243;-68
2023/06/18 04:24:07;;;;;;;3.33;3.03;;;19.10;60.00;;;;;;5055030;28;20182;-68
2023/06/18 04:26:35;;;;;;;3.90;3.25;;;19.10;59.90;;;;;;5041274;28;20335;-67
2023/06/18 04:29:00;;;;;;;4.90;3.40;;;19.10;60.40;;;;;;5040623;28;20177;-68
2023/06/18 04:31:26;;;;;;;3.85;2.90;;;19.10;59.90;;;;;;5039421;28;20201;-67
2023/06/18 04:33:52;;;;;;;4.35;3.15;;;19.10;59.90;;;;;;5040449;28;20195;-67
2023/06/18 04:36:22;;;;;;;4.50;3.40;;;19.10;60.00;;;;;;5035883;28;20263;-67
2023/06/18 04:38:47;;;;;;;3.83;3.10;;;19.10;60.40;;;;;;5022848;28;20170;-68
2023/06/18 04:41:13;;;;;;;4.18;3.13;;;19.10;60.20;;;;;;5055924;28;20264;-67
2023/06/18 04:43:39;;;;;;;3.30;2.80;;;19.10;60.50;;;;;;5056127;28;20174;-68
2023/06/18 04:46:04;;;;;;;4.57;3.15;;;19.10;60.60;;;;;;5039419;28;20223;-68
2023/06/18 04:48:34;;;;;;;3.65;3.28;;;19.20;61.00;;;;;;5039799;28;20204;-68
2023/06/18 04:50:59;;;;;;;3.92;3.17;;;19.20;61.40;;;;;;5039505;28;20189;-68
2023/06/18 04:53:25;;;;;;;3.58;3.28;;;19.20;61.20;;;;;;5039677;28;20216;-67
2023/06/18 04:55:52;;;;;;;3.40;2.95;;;19.20;61.40;;;;;;5056628;28;20184;-68
2023/06/18 04:58:20;;;;;;;3.78;3.05;;;19.30;61.70;;;;;;5036054;28;20284;-69
2023/06/18 05:00:48;;;;;;;3.45;3.00;;;19.40;62.10;;;;;;5025836;28;20177;-68
2023/06/18 05:03:16;;;;;;;3.72;3.05;;;19.40;62.30;;;;;;5055943;28;20230;-68
2023/06/18 05:05:44;;;;;;;3.80;3.40;;;19.40;62.00;;;;;;5055907;28;20227;-68
2023/06/18 05:08:10;;;;;;;3.50;3.10;;;19.50;62.40;;;;;;5042257;28;20272;-69
2023/06/18 05:10:38;;;;;;;3.70;3.08;;;19.60;62.60;;;;;;5057296;28;20278;-68
2023/06/18 05:13:04;;;;;;;4.38;3.63;;;19.60;62.30;;;;;;5040395;28;20193;-68
2023/06/18 05:15:34;;;;;;;4.20;3.28;;;19.60;62.50;;;;;;5024344;28;20205;-68
2023/06/18 05:18:02;;;;;;;5.25;3.38;;;19.70;62.90;;;;;;5042421;28;20197;-68
2023/06/18 05:20:31;;;;;;;3.30;3.00;;;19.80;62.80;;;;;;5039458;28;20189;-67
2023/06/18 05:22:59;;;;;;;4.82;3.50;;;19.90;63.70;;;;;;5038774;28;20187;-69
2023/06/18 05:25:27;;;;;;;5.07;3.50;;;19.90;63.40;;;;;;5054797;28;20225;-67
2023/06/18 05:27:52;;;;;;;3.50;3.20;;;20.00;63.20;;;;;;5039660;28;20177;-67
2023/06/18 05:30:20;;;;;;;3.35;3.03;;;20.10;63.00;;;;;;5034811;28;20277;-68
2023/06/18 05:32:48;;;;;;;4.07;3.63;;;20.20;62.90;;;;;;5044268;28;20280;-68
2023/06/18 05:35:16;;;;;;;4.05;3.28;;;20.20;63.30;;;;;;5041177;28;20169;-68
2023/06/18 05:37:42;;;;;;;3.22;2.92;;;20.30;63.20;;;;;;5035375;28;20198;-69
2023/06/18 05:40:12;;;;;;;3.95;3.00;;;20.30;63.30;;;;;;5045306;28;20184;-68
2023/06/18 05:42:41;;;;;;;5.10;3.30;;;20.40;63.20;;;;;;5049862;28;20213;-69
2023/06/18 05:45:10;;;;;;;4.57;3.22;;;20.50;63.30;;;;;;5051719;28;20178;-68
2023/06/18 05:47:35;;;;;;;3.90;3.50;;;20.50;63.30;;;;;;5042186;28;20193;-68
2023/06/18 05:50:01;;;;;;;5.88;4.03;;;20.60;63.50;;;;;;5034713;28;20282;-68
2023/06/18 05:52:26;;;;;;;3.75;3.40;;;20.70;63.50;;;;;;5035597;28;20218;-68
2023/06/18 05:54:52;;;;;;;4.25;3.47;;;20.70;63.50;;;;;;5037466;28;20173;-68
2023/06/18 05:57:17;;;;;;;4.13;3.42;;;20.80;63.60;;;;;;5038352;28;20185;-68
2023/06/18 05:59:47;;;;;;;4.57;3.35;;;20.90;63.50;;;;;;5055372;28;20234;-68
2023/06/18 06:02:15;;;;;;;5.75;3.72;;;20.90;63.30;;;;;;5051414;28;20188;-69
2023/06/18 06:04:40;;;;;;;5.13;3.35;;;21.00;63.40;;;;;;5053858;28;20293;-68
2023/06/18 06:07:08;;;;;;;3.83;3.42;;;21.00;63.20;;;;;;5038390;28;20231;-68
2023/06/18 06:09:34;;;;;;;3.92;3.53;;;21.10;63.30;;;;;;5050482;28;20284;-68
2023/06/18 06:11:59;;;;;;;4.57;3.45;;;21.10;63.10;;;;;;5037235;28;20332;-68
2023/06/18 06:14:25;;;;;;;3.67;3.38;;;21.10;63.00;;;;;;5041288;28;20193;-69
2023/06/18 06:16:57;;;;;;;3.80;3.40;;;21.20;63.10;;;;;;5052771;28;20186;-69
2023/06/18 06:19:22;;;;;;;3.83;3.25;;;21.20;63.20;;;;;;5045634;28;20219;-69
2023/06/18 06:21:48;;;;;;;3.63;3.30;;;21.20;63.10;;;;;;5037826;28;20181;-68
2023/06/18 06:24:15;;;;;;;3.75;3.00;;;21.30;63.20;;;;;;5054323;28;20227;-68
2023/06/18 06:26:41;;;;;;;3.95;3.50;;;21.30;63.10;;;;;;5037666;28;20188;-68
2023/06/18 06:29:06;;;;;;;3.58;3.28;;;21.40;63.10;;;;;;5035916;28;20211;-68
2023/06/18 06:31:32;;;;;;;3.55;3.20;;;21.40;63.10;;;;;;5043809;28;20187;-68
2023/06/18 06:34:00;;;;;;;4.47;3.45;;;21.50;63.20;;;;;;5054520;28;20169;-68
2023/06/18 06:36:26;;;;;;;4.50;3.70;;;21.50;63.20;;;;;;5034764;28;20201;-69
2023/06/18 06:38:53;;;;;;;4.20;3.47;;;21.60;63.20;;;;;;5054663;28;20179;-68
2023/06/18 06:41:22;;;;;;;3.60;3.30;;;21.60;63.10;;;;;;5048796;28;20204;-68
2023/06/18 06:43:50;;;;;;;3.70;3.13;;;21.60;63.00;;;;;;5033783;28;20217;-68
2023/06/18 06:46:18;;;;;;;8.27;3.05;;;21.70;63.00;;;;;;5050705;28;20181;-68
2023/06/18 06:48:44;;;;;;;4.82;3.17;;;21.70;62.80;;;;;;5052169;28;20185;-69
2023/06/18 06:51:09;;;;;;;4.10;3.22;;;21.80;63.10;;;;;;5046221;28;20200;-68
2023/06/18 06:53:35;;;;;;;4.50;3.17;;;21.80;63.00;;;;;;5039477;28;20189;-69
2023/06/18 06:56:01;;;;;;;3.42;3.05;;;21.90;63.00;;;;;;5037845;28;20169;-68
2023/06/18 06:58:26;;;;;;;8.63;3.47;;;21.90;63.00;;;;;;5037328;28;20205;-68
2023/06/18 07:00:52;;;;;;;5.32;3.47;;;22.00;63.10;;;;;;5054067;28;20180;-68
2023/06/18 07:03:17;;;;;;;4.00;3.55;;;22.00;63.00;;;;;;5040985;28;20170;-67
2023/06/18 07:05:43;;;;;;;4.43;3.33;;;22.10;63.00;;;;;;5044727;28;20204;-69
2023/06/18 07:08:09;;;;;;;4.97;3.58;;;22.10;62.80;;;;;;5048955;28;20241;-68
2023/06/18 07:10:37;;;;;;;3.88;3.22;;;22.20;63.20;;;;;;5037109;28;20202;-70
2023/06/18 07:13:03;;;;;;;7.70;3.38;;;22.30;63.00;;;;;;5049256;28;20204;-69
2023/06/18 07:15:31;;;;;;;3.40;3.05;;;22.40;63.00;;;;;;5053315;28;20169;-69
2023/06/18 07:17:56;;;;;;;3.78;3.38;;;22.50;63.00;;;;;;5052497;28;20199;-67
2023/06/18 07:20:24;;;;;;;3.70;3.33;;;22.50;63.10;;;;;;5052822;28;20181;-68
2023/06/18 07:22:50;;;;;;;4.32;3.00;;;22.60;62.90;;;;;;5033954;28;20449;-67
2023/06/18 07:25:15;;;;;;;3.58;3.28;;;22.70;62.90;;;;;;5035709;28;20173;-68
2023/06/18 07:27:41;;;;;;;3.00;2.75;;;22.90;62.80;;;;;;5052570;28;20216;-68
2023/06/18 07:30:07;;;;;;;3.70;3.40;;;23.00;62.70;;;;;;5049708;28;20185;-68
2023/06/18 07:32:35;;;;;;;4.00;3.42;;;23.10;62.50;;;;;;5029459;28;20193;-68
2023/06/18 07:35:09;;;;;;;3.63;3.28;;;23.20;62.40;;;;;;5032635;28;20212;-68
2023/06/18 07:37:40;;;;;;;4.68;3.20;;;23.30;62.20;;;;;;5022445;28;20169;-68
2023/06/18 07:40:08;;;;;;;3.30;3.00;;;23.40;62.20;;;;;;5045142;28;20170;-68
2023/06/18 07:42:34;;;;;;;6.03;3.83;;;23.50;61.90;;;;;;5052839;28;20173;-68
2023/06/18 07:45:00;;;;;;;5.10;3.17;;;23.60;61.70;;;;;;5049642;28;20177;-68
2023/06/18 07:47:28;;;;;;;5.60;3.67;;;23.80;61.80;;;;;;5042260;28;20204;-68
2023/06/18 07:49:53;;;;;;;3.65;3.25;;;23.90;61.80;;;;;;5040935;28;20185;-69
2023/06/18 07:52:19;;;;;;;4.07;3.67;;;24.10;62.20;;;;;;5053094;28;20208;-68
2023/06/18 07:54:45;;;;;;;3.83;3.10;;;24.20;61.30;;;;;;5035128;28;20180;-68
2023/06/18 07:57:11;;;;;;;3.40;3.10;;;24.40;61.40;;;;;;5038386;28;20173;-69
2023/06/18 07:59:36;;;;;;;3.58;3.20;;;24.50;61.10;;;;;;5028951;28;20227;-69
2023/06/18 08:02:02;;;;;;;4.18;3.70;;;24.70;60.80;;;;;;5040448;28;20174;-69
2023/06/18 08:04:30;;;;;;;3.83;3.42;;;24.80;60.30;;;;;;5038639;28;20236;-68
2023/06/18 08:06:57;;;;;;;4.20;3.40;;;24.90;59.80;;;;;;5042179;28;20285;-68
2023/06/18 08:09:23;;;;;;;5.63;4.70;;;25.10;59.70;;;;;;5036811;28;20182;-68
2023/06/18 08:11:51;;;;;;;4.50;3.67;;;25.20;59.50;;;;;;5037522;28;20205;-69
2023/06/18 08:14:18;;;;;;;4.13;3.72;;;25.30;59.50;;;;;;5056226;28;20336;-68
2023/06/18 08:16:43;;;;;;;5.25;3.45;;;25.50;59.20;;;;;;5040436;28;20173;-69
2023/06/18 08:19:09;;;;;;;4.25;3.05;;;25.60;59.10;;;;;;5044088;28;20193;-68
2023/06/18 08:21:40;;;;;;;4.70;3.47;;;25.70;59.10;;;;;;5025546;28;20178;-68
2023/06/18 08:24:06;;;;;;;3.60;3.05;;;25.80;58.70;;;;;;5040633;28;20197;-68
2023/06/18 08:26:33;;;;;;;4.95;3.47;;;25.90;58.50;;;;;;5042341;28;20181;-69
2023/06/18 08:28:59;;;;;;;3.53;3.15;;;26.00;58.20;;;;;;5042331;28;20319;-68
2023/06/18 08:31:25;;;;;;;3.30;3.00;;;26.10;58.10;;;;;;5056405;28;20219;-69
2023/06/18 08:33:51;;;;;;;3.60;3.30;;;26.20;58.10;;;;;;5040018;28;20177;-69
2023/06/18 08:36:18;;;;;;;3.55;3.17;;;26.30;57.80;;;;;;5057066;28;20207;-68
2023/06/18 08:38:46;;;;;;;3.80;3.40;;;26.40;57.50;;;;;;5056282;28;20234;-74
2023/06/18 08:41:12;;;;;;;3.75;3.08;;;26.50;56.70;;;;;;5038583;28;20182;-73
2023/06/18 08:43:38;;;;;;;4.90;3.47;;;26.50;56.60;;;;;;5037609;28;20384;-73
2023/06/18 08:46:14;;;;;;;3.95;3.55;;;26.60;56.50;;;;;;5036128;28;20178;-74
2023/06/18 08:48:56;;;;;;;3.97;3.58;;;26.70;56.10;;;;;;5031572;28;20216;-74
2023/06/18 08:51:23;;;;;;;5.25;3.53;;;26.80;55.30;;;;;;5041548;28;20193;-74
2023/06/18 08:54:10;;;;;;;4.32;3.33;;;26.80;55.60;;;;;;5052307;28;20309;-75
2023/06/18 08:56:43;;;;;;;4.10;3.58;;;26.90;53.70;;;;;;5051334;28;20165;-73
2023/06/18 08:59:11;;;;;;;4.57;3.28;;;27.00;54.80;;;;;;5050927;28;21417;-74
2023/06/18 09:01:38;;;;;;;4.72;3.30;;;27.00;54.60;;;;;;5039531;28;20223;-74
2023/06/18 09:04:05;;;;;;;4.28;3.42;;;27.10;54.90;;;;;;5056463;28;20177;-73
2023/06/18 09:06:32;;;;;;;4.43;3.67;;;27.20;54.50;;;;;;5055716;28;20197;-74
2023/06/18 09:09:00;;;;;;;3.97;3.38;;;27.20;54.00;;;;;;5038799;28;20200;-74
2023/06/18 09:11:29;;;;;;;3.83;3.38;;;27.30;53.70;;;;;;5050708;28;20404;-73
2023/06/18 09:13:54;;;;;;;3.53;3.22;;;27.40;53.30;;;;;;5056032;28;20177;-73
2023/06/18 09:16:22;;;;;;;3.50;3.20;;;27.40;53.30;;;;;;5039049;28;20226;-73
2023/06/18 09:18:48;;;;;;;3.83;3.25;;;27.50;53.20;;;;;;5039271;28;20201;-74
2023/06/18 09:21:38;;;;;;;4.20;3.80;;;27.60;52.50;;;;;;5054762;28;20252;-73
2023/06/18 09:24:07;;;;;;;4.15;3.75;;;27.60;52.00;;;;;;5055218;28;20197;-72
2023/06/18 09:26:36;;;;;;;3.72;3.40;;;27.70;52.60;;;;;;5038884;28;20192;-73
2023/06/18 09:29:08;;;;;;;3.80;3.40;;;27.80;52.70;;;;;;5040147;28;20181;-74
2023/06/18 09:31:37;;;;;;;3.70;3.35;;;27.80;52.70;;;;;;5055636;28;20169;-73
2023/06/18 09:34:12;;;;;;;3.35;3.03;;;27.90;52.20;;;;;;5050540;28;20459;-72
2023/06/18 09:36:40;;;;;;;3.58;3.28;;;28.00;51.90;;;;;;5054666;28;20208;-73
2023/06/18 09:39:14;;;;;;;5.20;3.65;;;28.00;52.10;;;;;;5052633;28;20315;-76
2023/06/18 09:41:43;;;;;;;4.00;3.50;;;28.10;51.10;;;;;;5038232;28;20172;-74
2023/06/18 09:44:11;;;;;;;3.55;2.92;;;28.20;51.70;;;;;;5055245;28;20181;-73
2023/06/18 09:46:36;;;;;;;3.70;3.22;;;28.30;51.80;;;;;;5038726;28;20169;-71
2023/06/18 09:49:04;;;;;;;3.50;3.20;;;28.40;51.70;;;;;;5038283;28;20279;-72
2023/06/18 09:51:32;;;;;;;4.23;3.43;;;28.50;51.30;;;;;;5055278;28;20176;-71
2023/06/18 09:54:00;;;;;;;3.85;3.50;;;28.60;51.10;;;;;;5039432;28;20173;-70
2023/06/18 09:56:30;;;;;;;3.35;3.05;;;28.70;50.90;;;;;;5035068;28;20179;-72
2023/06/18 09:58:56;;;;;;;5.10;3.60;;;28.90;50.70;;;;;;5054815;28;20185;-72
2023/06/18 10:01:27;;;;;;;4.32;3.58;;;29.00;50.30;;;;;;5038249;28;20220;-72
2023/06/18 10:03:54;;;;;;;3.38;3.08;;;29.10;50.30;;;;;;5054877;28;20173;-74
2023/06/18 10:06:22;;;;;;;3.85;2.90;;;29.30;50.10;;;;;;5038666;28;20208;-73
2023/06/18 10:08:57;;;;;;;3.80;3.45;;;29.50;49.60;;;;;;5054664;28;20181;-72
2023/06/18 10:11:25;;;;;;;3.85;3.17;;;29.60;48.70;;;;;;5054682;28;20248;-73
2023/06/18 10:13:57;;;;;;;3.60;3.10;;;29.60;48.70;;;;;;5038426;28;20228;-73
2023/06/18 10:16:27;;;;;;;3.50;3.20;;;29.70;48.40;;;;;;5046398;28;20265;-72
2023/06/18 10:19:21;;;;;;;3.92;3.15;;;29.70;48.40;;;;;;5018247;28;20224;-72
2023/06/18 10:21:57;;;;;;;3.42;2.95;;;29.80;47.60;;;;;;5043385;28;20173;-73
2023/06/18 10:24:27;;;;;;;3.88;3.47;;;29.90;48.60;;;;;;5054105;28;20231;-69
2023/06/18 10:26:54;;;;;;;4.18;3.17;;;30.00;48.00;;;;;;5051000;28;20172;-69
2023/06/18 10:29:23;;;;;;;3.90;3.50;;;30.00;47.70;;;;;;5046051;28;20177;-69
2023/06/18 10:31:50;;;;;;;3.90;3.22;;;30.10;47.40;;;;;;5051215;28;20173;-69
2023/06/18 10:34:17;;;;;;;3.95;3.40;;;30.20;46.80;;;;;;5034104;28;20176;-68
2023/06/18 10:36:45;;;;;;;4.32;3.50;;;30.30;47.50;;;;;;5018051;28;20228;-69
2023/06/18 10:39:12;;;;;;;3.83;3.22;;;30.30;46.80;;;;;;5033025;28;20181;-69
2023/06/18 10:41:39;;;;;;;3.30;3.00;;;30.40;47.00;;;;;;5046060;28;20179;-69
2023/06/18 10:44:04;;;;;;;2.80;2.60;;;30.60;47.00;;;;;;5037742;28;20192;-68
2023/06/18 10:46:33;;;;;;;4.18;3.30;;;30.80;46.70;;;;;;5022184;28;20188;-69
2023/06/18 10:49:16;;;;;;;3.40;3.10;;;31.00;46.80;;;;;;5027806;28;20253;-69
2023/06/18 10:51:45;;;;;;;3.60;3.13;;;31.20;45.40;;;;;;5033818;28;20170;-68
2023/06/18 10:54:30;;;;;;;3.90;3.00;;;31.40;46.50;;;;;;5051125;28;20208;-69
2023/06/18 10:57:00;;;;;;;4.18;2.90;;;31.70;45.50;;;;;;5034444;28;20177;-69
2023/06/18 10:59:40;;;;;;;4.20;3.40;;;31.90;46.50;;;;;;5045234;28;20177;-68
2023/06/18 11:02:06;;;;;;;4.75;3.25;;;32.20;45.40;;;;;;5054391;28;20212;-69
2023/06/18 11:04:33;;;;;;;3.50;3.20;;;32.40;45.90;;;;;;5037500;28;20192;-69
2023/06/18 11:07:19;;;;;;;3.17;2.88;;;32.50;45.80;;;;;;5037526;28;20267;-67
2023/06/18 11:09:52;;;;;;;3.78;2.85;;;32.70;44.70;;;;;;5037993;28;20164;-69
2023/06/18 11:12:22;;;;;;;3.17;2.80;;;32.90;45.00;;;;;;5037538;28;20197;-69
2023/06/18 11:15:19;;;;;;;3.22;2.92;;;33.10;45.30;;;;;;5035889;28;20192;-68
2023/06/18 11:18:00;;;;;;;3.05;2.75;;;33.30;43.40;;;;;;5057402;28;20165;-69
2023/06/18 11:20:29;;;;;;;2.80;2.58;;;33.50;44.70;;;;;;5037787;28;20199;-68
2023/06/18 11:22:58;;;;;;;2.83;2.63;;;33.70;43.70;;;;;;5053426;28;20177;-68
2023/06/18 11:25:28;;;;;;;3.45;3.15;;;33.70;43.60;;;;;;5037156;28;20179;-69
2023/06/18 11:27:58;;;;;;;3.92;3.53;;;33.80;43.00;;;;;;5035916;28;20287;-68
2023/06/18 11:30:24;;;;;;;3.63;3.33;;;34.00;43.50;;;;;;5048582;28;20189;-68
2023/06/18 11:32:49;;;;;;;3.53;3.22;;;34.10;43.80;;;;;;5037499;28;20193;-69
2023/06/18 11:35:15;;;;;;;3.50;3.20;;;34.20;43.70;;;;;;5035929;28;20169;-68
2023/06/18 11:37:46;;;;;;;3.25;2.95;;;34.40;43.20;;;;;;5017749;28;20189;-68
2023/06/18 11:40:12;;;;;;;3.15;2.85;;;34.40;42.90;;;;;;5036902;28;20246;-69
2023/06/18 11:42:49;;;;;;;3.60;3.30;;;34.40;42.90;;;;;;5037047;28;20173;-69
2023/06/18 11:45:15;;;;;;;3.58;3.03;;;34.50;42.30;;;;;;5036742;28;20164;-69
2023/06/18 11:47:48;;;;;;;3.65;3.35;;;34.60;42.90;;;;;;5020261;28;20231;-70
2023/06/18 11:50:16;;;;;;;3.08;2.80;;;34.70;42.50;;;;;;5037113;28;20188;-69
2023/06/18 11:52:44;;;;;;;5.00;3.53;;;34.80;42.50;;;;;;5037166;28;20234;-69
2023/06/18 11:55:13;;;;;;;4.18;3.40;;;34.80;42.40;;;;;;5036613;28;20172;-69
2023/06/18 11:57:40;;;;;;;4.57;3.40;;;34.80;42.00;;;;;;5036917;28;20212;-69
2023/06/18 12:00:08;;;;;;;3.63;3.22;;;34.70;41.80;;;;;;5026196;28;20410;-69
2023/06/18 12:02:37;;;;;;;4.63;3.97;;;34.70;41.50;;;;;;5036650;28;20272;-69
2023/06/18 12:05:06;;;;;;;5.00;4.50;;;34.60;41.50;;;;;;5036825;28;20250;-69
2023/06/18 12:07:32;;;;;;;5.35;4.63;;;34.50;41.40;;;;;;5033004;28;20178;-69
2023/06/18 12:10:07;;;;;;;5.63;4.38;;;34.40;41.50;;;;;;5032996;28;20173;-69
2023/06/18 12:12:36;;;;;;;6.40;4.85;;;34.40;41.70;;;;;;5036459;28;20288;-69
2023/06/18 12:15:14;;;;;;;5.57;4.75;;;34.40;41.80;;;;;;5049219;28;20180;-67
2023/06/18 12:18:02;;;;;;;5.28;4.55;;;34.50;41.60;;;;;;5036853;28;20223;-68
2023/06/18 12:20:28;;;;;;;6.13;4.40;;;34.50;41.40;;;;;;5050006;28;20197;-69
2023/06/18 12:23:02;;;;;;;5.35;4.40;;;34.50;41.40;;;;;;5021413;28;20178;-68
2023/06/18 12:25:29;;;;;;;5.22;4.72;;;34.40;41.00;;;;;;5053374;28;20177;-68
2023/06/18 12:27:56;;;;;;;5.07;4.57;;;34.40;40.90;;;;;;5054092;28;20272;-68
2023/06/18 12:30:29;;;;;;;6.20;4.93;;;34.20;40.80;;;;;;5057079;28;20204;-69
2023/06/18 12:33:12;;;;;;;6.32;5.28;;;34.10;40.50;;;;;;5040218;28;20196;-68
2023/06/18 12:35:44;;;;;;;5.70;5.10;;;33.90;40.50;;;;;;5041360;28;20267;-68
2023/06/18 12:38:12;;;;;;;7.13;5.15;;;33.80;40.90;;;;;;5056853;28;20165;-68
2023/06/18 12:40:51;;;;;;;7.72;6.00;;;33.70;41.10;;;;;;5031038;28;20175;-70
2023/06/18 12:43:19;;;;;;;9.00;6.00;;;33.50;41.00;;;;;;5041458;28;20200;-68
2023/06/18 12:45:51;;;;;;;7.03;6.28;;;33.40;41.20;;;;;;5049424;28;20174;-73
2023/06/18 12:50:50;;;;;;;7.07;5.82;;;33.00;41.20;;;;;;5123554;22;20231;-72
2023/06/18 12:53:28;;;;;;;6.97;6.28;;;32.90;41.10;;;;;;5059212;28;20187;-72
2023/06/18 12:56:14;;;;;;;7.95;5.85;;;32.70;41.20;;;;;;5048314;28;20204;-71
2023/06/18 12:58:42;;;;;;;6.97;5.85;;;32.60;41.10;;;;;;5055535;28;20195;-68